METAR stanice u blizini

 

LYBE - Beograd / Surčin, Srbija
Ažurirano: 26/11/2020 20:30
NOT Current
Mist, Oblačno
Mist, Oblačno
 Pravac vetra S
Vetar: S 9 km/h
Temperatura: 0°C
Osećaj hladnoće: -3°C
Tačka rose: 0°C
Vlažnost: 100%
Pritisak: 1026 hPa
Pregled: Mist
Oblaci: Oblačno
Vidljivost: 2 km
Cloud details: Oblačno 61 m
2020/11/26 19:30 LYBE 261930Z 36005KT 1500 BR OVC002 00/00 Q1026 NOSIG
LYBT - Beograd / Batajnica, Srbija
Ažurirano: 26/11/2020 20:30
NOT Current
Mist, Oblačno
Mist, Oblačno
 Pravac vetra varies
Vetar: varies 4 km/h
Temperatura: 1°C
Tačka rose: 1°C
Vlažnost: 100%
Pritisak: 1026 hPa
Pregled: Mist
Oblaci: Oblačno
Vidljivost: 2 km
Cloud details: Oblačno 91 m
2020/11/26 19:30 LYBT 261930Z VRB02KT 1500 BR OVC003 01/01 Q1026 NOSIG
LYVR - Vršac, Srbija
Ažurirano: 26/11/2020 20:30
NOT Current
Slaba kiša, Freezing, Magla, Oblačno
Slaba kiša, Freezing, Magla, Oblačno
 Pravac vetra SSI
Vetar: SSI 6 km/h
Temperatura: -1°C
Tačka rose: -1°C
Vlažnost: 100%
Pritisak: 1026 hPa
Pregled: Slaba kiša, Freezing, Magla
Oblaci: Oblačno
Vidljivost: 1 km
Cloud details: Oblačno 61 m
2020/11/26 19:30 LYVR 261930Z AUTO 03003KT 320V050 0700 R19/0800N R01/1100D -RA FZFG VV002 M01/M01 Q1026
 
LYKV - Lađevci, Srbija
Ažurirano: 26/11/2020 20:30
NOT Current
Freezing fog, Oblačno
Freezing fog, Oblačno
 Pravac vetra varies
Vetar: varies 2 km/h
Temperatura: -1°C
Tačka rose: -1°C
Vlažnost: 100%
Pritisak: 1024 hPa
Pregled: Freezing Fog
Oblaci: Oblačno
Vidljivost: 0 km
Cloud details: Oblačno 61 m
2020/11/26 19:30 LYKV 261930Z VRB01KT 0200 R31/0150N R13/0150N FZFG VV002 M01/M01 Q1024 NOSIG
LYNI - Niš, Srbija
Ažurirano: 26/11/2020 20:30
NOT Current
Partly Cloudy
Partly Cloudy
 Pravac vetra varies
Vetar: varies 2 km/h
Temperatura: 0°C
Tačka rose: -2°C
Vlažnost: 87%
Pritisak: 1024 hPa
Oblaci: Partly Cloudy
Vidljivost: 8 km
2020/11/26 19:30 LYNI 261930Z VRB01KT 8000 NSC M00/M02 Q1024 NOSIG
BKPR - Priština, Srbija
Ažurirano: 26/11/2020 20:30
NOT Current
Oblačno
Oblačno
 Pravac vetra calm
Vetar: Tišina
Temperatura: -1°C
Tačka rose: -4°C
Vlažnost: 80%
Pritisak: 1024 hPa
Oblaci: Oblačno
Vidljivost: 6 km
Cloud details: Oblačno 3048 m
2020/11/26 19:30 BKPR 261930Z 00000KT 6000 VV100 M01/M04 Q1024 NOSIG RMK 17010095
 
LHPP - Pecs / Pogany, Hungary
Ažurirano: 26/11/2020 18:45
NOT Current
Mist, Oblačno
Mist, Oblačno
 Pravac vetra S
Vetar: S 2 km/h
Temperatura: 2°C
Tačka rose: 1°C
Vlažnost: 93%
Pritisak: 1025 hPa
Pregled: Mist
Oblaci: Oblačno
Vidljivost: 3 km
Cloud details: Oblačno 305 m
2020/11/26 17:45 LHPP 261745Z 01001KT 3000 BR OVC010 02/01 Q1025
LHUD - Szeged, Hungary
Ažurirano: 04/07/2019 01:45
NOT Current
Vedro
Vedro
 Pravac vetra S
Vetar: S 7 km/h
Temperatura: 18°C
Tačka rose: 13°C
Vlažnost: 73%
Pritisak: 1019 hPa
Pregled: Vedro
Vidljivost: greater than 10 km
2019/07/03 23:45 LHUD 032345Z 35004KT CAVOK 18/13 Q1019
LRTR - Timisoara, Romania
Ažurirano: 26/11/2020 20:30
NOT Current
Magla, Oblačno
Magla, Oblačno
 Pravac vetra SSI
Vetar: SSI 7 km/h
Temperatura: 1°C
Osećaj hladnoće: -2°C
Tačka rose: 1°C
Vlažnost: 100%
Pritisak: 1025 hPa
Pregled: Magla
Oblaci: Oblačno
Vidljivost: 1 km
Cloud details: Oblačno 61 m
2020/11/26 19:30 LRTR 261930Z 02004KT 0900 R11/1200U R29/1800D FG OVC002 01/01 Q1025
 
LRCV - Craiova, Romania
Ažurirano: 26/11/2020 20:30
NOT Current
Freezing fog, Oblačno
Freezing fog, Oblačno
 Pravac vetra SZ
Vetar: SZ 6 km/h
Temperatura: -1°C
Tačka rose: -1°C
Vlažnost: 100%
Pritisak: 1023 hPa
Pregled: Freezing Fog
Oblaci: Oblačno
Vidljivost: 0 km
Cloud details: Oblačno 30 m
2020/11/26 19:30 LRCV 261930Z 31003KT 0100 R27/0300N FZFG VV001 M01/M01 Q1023
LBSF - Sofia, Bulgaria
Ažurirano: 26/11/2020 20:30
NOT Current
Freezing fog, Oblačno
Freezing fog, Oblačno
 Pravac vetra varies
Vetar: varies 4 km/h
Temperatura: -3°C
Tačka rose: -3°C
Vlažnost: 100%
Pritisak: 1025 hPa
Pregled: Freezing Fog
Oblaci: Oblačno
Vidljivost: 0 km
Cloud details: Oblačno 30 m
2020/11/26 19:30 LBSF 261930Z VRB02KT 0200 R27/0275N FZFG VV001 M03/M03 Q1025 NOSIG
LWSK - Skoplje, Makedonija
Ažurirano: 26/11/2020 20:30
NOT Current
Partly Cloudy
Partly Cloudy
 Pravac vetra calm
Vetar: Tišina
Temperatura: -1°C
Tačka rose: -3°C
Vlažnost: 86%
Pritisak: 1025 hPa
Oblaci: Partly Cloudy
Vidljivost: 7 km
2020/11/26 19:30 LWSK 261930Z 00000KT 7000 NSC M01/M03 Q1025 NOSIG
 
LYPG - Podgorica, Crna Gora
Ažurirano: 26/11/2020 20:30
NOT Current
Vedro
Vedro
 Pravac vetra varies
Vetar: varies 4 km/h
Temperatura: 4°C
Tačka rose: -1°C
Vlažnost: 70%
Pritisak: 1023 hPa
Pregled: Vedro
Vidljivost: greater than 10 km
2020/11/26 19:30 LYPG 261930Z VRB02KT CAVOK 04/M01 Q1023 NOSIG
LQSA - Sarajevo, Bosna i Hercegovina
Ažurirano: 26/11/2020 20:30
NOT Current
Mist, Delimično oblačno
Mist, Delimično oblačno
 Pravac vetra Z
Vetar: Z 4 km/h
Temperatura: -3°C
Tačka rose: -3°C
Vlažnost: 100%
Pritisak: 1023 hPa
Pregled: Mist
Oblaci: Partly Cloudy
Vidljivost: 5 km
2020/11/26 19:30 LQSA 261930Z 26002KT 5000 BR NSC M03/M03 Q1023 BECMG 3000
LDOS - Osijek, Hrvatksa
Ažurirano: 26/11/2020 20:30
NOT Current
Mist, Oblačno
Mist, Oblačno
 Pravac vetra IJI
Vetar: IJI 6 km/h
Temperatura: 2°C
Tačka rose: 2°C
Vlažnost: 100%
Pritisak: 1025 hPa
Pregled: Mist
Oblaci: Oblačno
Vidljivost: 3 km
Cloud details: Oblačno 152 m
2020/11/26 19:30 LDOS 261930Z 12003KT 080V170 3000 BR OVC005 02/02 Q1025